sensor_id;sensor_type;location;lat;lon;timestamp;temperature;humidity
65207;SHT31;58477;48.072;11.970;2023-06-14T00:01:01;13.04;65.18
65207;SHT31;58477;48.072;11.970;2023-06-14T00:03:28;13.06;65.13
65207;SHT31;58477;48.072;11.970;2023-06-14T00:05:54;13.07;65.17
65207;SHT31;58477;48.072;11.970;2023-06-14T00:08:19;13.04;65.46
65207;SHT31;58477;48.072;11.970;2023-06-14T00:10:46;12.95;65.82
65207;SHT31;58477;48.072;11.970;2023-06-14T00:13:12;12.92;65.84
65207;SHT31;58477;48.072;11.970;2023-06-14T00:15:37;12.90;66.03
65207;SHT31;58477;48.072;11.970;2023-06-14T00:18:04;12.82;66.12
65207;SHT31;58477;48.072;11.970;2023-06-14T00:20:32;12.75;66.11
65207;SHT31;58477;48.072;11.970;2023-06-14T00:23:01;12.63;66.59
65207;SHT31;58477;48.072;11.970;2023-06-14T00:25:27;12.65;66.50
65207;SHT31;58477;48.072;11.970;2023-06-14T00:27:53;12.60;66.29
65207;SHT31;58477;48.072;11.970;2023-06-14T00:30:18;12.60;66.47
65207;SHT31;58477;48.072;11.970;2023-06-14T00:32:45;12.57;66.44
65207;SHT31;58477;48.072;11.970;2023-06-14T00:35:11;12.56;66.59
65207;SHT31;58477;48.072;11.970;2023-06-14T00:37:37;12.55;66.59
65207;SHT31;58477;48.072;11.970;2023-06-14T00:40:03;12.55;66.61
65207;SHT31;58477;48.072;11.970;2023-06-14T00:42:30;12.55;66.71
65207;SHT31;58477;48.072;11.970;2023-06-14T00:44:56;12.52;66.82
65207;SHT31;58477;48.072;11.970;2023-06-14T00:47:22;12.49;66.97
65207;SHT31;58477;48.072;11.970;2023-06-14T00:49:49;12.38;67.11
65207;SHT31;58477;48.072;11.970;2023-06-14T00:52:19;12.29;67.67
65207;SHT31;58477;48.072;11.970;2023-06-14T00:54:45;12.20;68.50
65207;SHT31;58477;48.072;11.970;2023-06-14T00:57:11;12.14;68.47
65207;SHT31;58477;48.072;11.970;2023-06-14T00:59:42;12.14;68.57
65207;SHT31;58477;48.072;11.970;2023-06-14T01:02:07;12.14;68.35
65207;SHT31;58477;48.072;11.970;2023-06-14T01:04:36;12.08;68.43
65207;SHT31;58477;48.072;11.970;2023-06-14T01:07:23;12.02;68.85
65207;SHT31;58477;48.072;11.970;2023-06-14T01:13:07;11.48;70.23
65207;SHT31;58477;48.072;11.970;2023-06-14T01:15:36;11.58;70.35
65207;SHT31;58477;48.072;11.970;2023-06-14T01:18:03;11.61;69.80
65207;SHT31;58477;48.072;11.970;2023-06-14T01:20:32;11.41;70.82
65207;SHT31;58477;48.072;11.970;2023-06-14T01:22:58;11.34;71.29
65207;SHT31;58477;48.072;11.970;2023-06-14T01:25:23;11.26;71.46
65207;SHT31;58477;48.072;11.970;2023-06-14T01:27:53;11.16;71.55
65207;SHT31;58477;48.072;11.970;2023-06-14T01:30:20;11.05;71.89
65207;SHT31;58477;48.072;11.970;2023-06-14T01:32:47;11.09;72.94
65207;SHT31;58477;48.072;11.970;2023-06-14T01:35:13;11.19;72.31
65207;SHT31;58477;48.072;11.970;2023-06-14T01:37:40;11.16;72.15
65207;SHT31;58477;48.072;11.970;2023-06-14T01:40:07;11.10;72.61
65207;SHT31;58477;48.072;11.970;2023-06-14T01:42:36;11.07;72.20
65207;SHT31;58477;48.072;11.970;2023-06-14T01:45:04;11.03;72.42
65207;SHT31;58477;48.072;11.970;2023-06-14T01:47:31;11.23;71.77
65207;SHT31;58477;48.072;11.970;2023-06-14T01:49:58;11.27;71.64
65207;SHT31;58477;48.072;11.970;2023-06-14T01:52:23;11.12;72.06
65207;SHT31;58477;48.072;11.970;2023-06-14T01:54:50;11.02;72.57
65207;SHT31;58477;48.072;11.970;2023-06-14T01:57:16;11.07;72.63
65207;SHT31;58477;48.072;11.970;2023-06-14T01:59:41;11.16;72.08
65207;SHT31;58477;48.072;11.970;2023-06-14T02:02:08;11.06;72.32
65207;SHT31;58477;48.072;11.970;2023-06-14T02:04:33;10.97;72.90
65207;SHT31;58477;48.072;11.970;2023-06-14T02:06:59;10.66;73.69
65207;SHT31;58477;48.072;11.970;2023-06-14T02:09:25;10.46;74.42
65207;SHT31;58477;48.072;11.970;2023-06-14T02:11:53;10.52;74.04
65207;SHT31;58477;48.072;11.970;2023-06-14T02:14:21;10.62;74.01
65207;SHT31;58477;48.072;11.970;2023-06-14T02:16:46;10.73;73.68
65207;SHT31;58477;48.072;11.970;2023-06-14T02:19:18;10.65;73.88
65207;SHT31;58477;48.072;11.970;2023-06-14T02:21:44;10.58;73.94
65207;SHT31;58477;48.072;11.970;2023-06-14T02:24:12;10.55;74.28
65207;SHT31;58477;48.072;11.970;2023-06-14T02:26:37;10.48;74.57
65207;SHT31;58477;48.072;11.970;2023-06-14T02:29:04;10.46;74.67
65207;SHT31;58477;48.072;11.970;2023-06-14T02:31:32;10.41;74.79
65207;SHT31;58477;48.072;11.970;2023-06-14T02:33:58;10.55;74.80
65207;SHT31;58477;48.072;11.970;2023-06-14T02:36:23;10.56;74.70
65207;SHT31;58477;48.072;11.970;2023-06-14T02:38:49;10.62;74.89
65207;SHT31;58477;48.072;11.970;2023-06-14T02:41:15;10.59;74.60
65207;SHT31;58477;48.072;11.970;2023-06-14T02:43:40;10.59;74.83
65207;SHT31;58477;48.072;11.970;2023-06-14T02:46:05;10.62;74.66
65207;SHT31;58477;48.072;11.970;2023-06-14T02:48:32;10.53;75.14
65207;SHT31;58477;48.072;11.970;2023-06-14T02:50:57;10.44;75.33
65207;SHT31;58477;48.072;11.970;2023-06-14T02:53:23;10.51;75.61
65207;SHT31;58477;48.072;11.970;2023-06-14T02:55:48;10.58;75.27
65207;SHT31;58477;48.072;11.970;2023-06-14T02:58:14;10.58;75.34
65207;SHT31;58477;48.072;11.970;2023-06-14T03:00:39;10.59;76.09
65207;SHT31;58477;48.072;11.970;2023-06-14T03:03:06;10.58;75.78
65207;SHT31;58477;48.072;11.970;2023-06-14T03:05:47;10.52;75.76
65207;SHT31;58477;48.072;11.970;2023-06-14T03:08:13;10.35;76.07
65207;SHT31;58477;48.072;11.970;2023-06-14T03:10:43;10.41;76.02
65207;SHT31;58477;48.072;11.970;2023-06-14T03:13:09;10.44;75.92
65207;SHT31;58477;48.072;11.970;2023-06-14T03:15:36;10.44;76.29
65207;SHT31;58477;48.072;11.970;2023-06-14T03:18:02;10.42;76.27
65207;SHT31;58477;48.072;11.970;2023-06-14T03:20:29;10.34;76.44
65207;SHT31;58477;48.072;11.970;2023-06-14T03:22:55;10.34;76.16
65207;SHT31;58477;48.072;11.970;2023-06-14T03:25:21;10.44;76.26
65207;SHT31;58477;48.072;11.970;2023-06-14T03:27:49;10.42;76.74
65207;SHT31;58477;48.072;11.970;2023-06-14T03:30:15;10.38;76.62
65207;SHT31;58477;48.072;11.970;2023-06-14T03:32:43;10.44;76.65
65207;SHT31;58477;48.072;11.970;2023-06-14T03:35:08;10.41;76.57
65207;SHT31;58477;48.072;11.970;2023-06-14T03:37:35;10.51;75.98
65207;SHT31;58477;48.072;11.970;2023-06-14T03:40:00;10.58;75.40
65207;SHT31;58477;48.072;11.970;2023-06-14T03:42:26;10.58;76.03
65207;SHT31;58477;48.072;11.970;2023-06-14T03:44:53;10.68;75.62
65207;SHT31;58477;48.072;11.970;2023-06-14T03:47:20;10.86;75.03
65207;SHT31;58477;48.072;11.970;2023-06-14T03:49:46;10.99;75.03
65207;SHT31;58477;48.072;11.970;2023-06-14T03:52:12;10.86;74.94
65207;SHT31;58477;48.072;11.970;2023-06-14T03:54:41;10.82;74.67
65207;SHT31;58477;48.072;11.970;2023-06-14T03:57:10;10.77;75.13
65207;SHT31;58477;48.072;11.970;2023-06-14T03:59:36;10.73;75.21
65207;SHT31;58477;48.072;11.970;2023-06-14T04:02:02;10.75;75.54
65207;SHT31;58477;48.072;11.970;2023-06-14T04:04:28;10.79;75.37
65207;SHT31;58477;48.072;11.970;2023-06-14T04:06:58;10.86;75.20
65207;SHT31;58477;48.072;11.970;2023-06-14T04:09:24;10.92;75.29
65207;SHT31;58477;48.072;11.970;2023-06-14T04:11:52;10.91;75.26
65207;SHT31;58477;48.072;11.970;2023-06-14T04:14:21;10.96;75.51
65207;SHT31;58477;48.072;11.970;2023-06-14T04:16:48;11.03;75.02
65207;SHT31;58477;48.072;11.970;2023-06-14T04:19:15;11.09;75.16
65207;SHT31;58477;48.072;11.970;2023-06-14T04:21:41;11.16;74.69
65207;SHT31;58477;48.072;11.970;2023-06-14T04:24:07;11.20;74.69
65207;SHT31;58477;48.072;11.970;2023-06-14T04:26:39;11.24;74.78
65207;SHT31;58477;48.072;11.970;2023-06-14T04:29:05;11.27;74.97
65207;SHT31;58477;48.072;11.970;2023-06-14T04:31:40;11.43;74.64
65207;SHT31;58477;48.072;11.970;2023-06-14T04:34:08;11.41;74.50
65207;SHT31;58477;48.072;11.970;2023-06-14T04:36:35;11.54;74.10
65207;SHT31;58477;48.072;11.970;2023-06-14T04:39:03;11.58;74.15
65207;SHT31;58477;48.072;11.970;2023-06-14T04:41:30;11.68;74.31
65207;SHT31;58477;48.072;11.970;2023-06-14T04:43:57;11.87;73.49
65207;SHT31;58477;48.072;11.970;2023-06-14T04:46:28;11.94;73.81
65207;SHT31;58477;48.072;11.970;2023-06-14T04:48:54;11.92;73.93
65207;SHT31;58477;48.072;11.970;2023-06-14T04:51:20;11.92;74.14
65207;SHT31;58477;48.072;11.970;2023-06-14T04:53:48;12.06;73.81
65207;SHT31;58477;48.072;11.970;2023-06-14T04:56:15;11.98;74.18
65207;SHT31;58477;48.072;11.970;2023-06-14T04:58:40;12.49;72.89
65207;SHT31;58477;48.072;11.970;2023-06-14T05:01:06;14.01;69.29
65207;SHT31;58477;48.072;11.970;2023-06-14T05:03:34;14.79;66.05
65207;SHT31;58477;48.072;11.970;2023-06-14T05:06:00;15.79;63.68
65207;SHT31;58477;48.072;11.970;2023-06-14T05:08:26;16.22;62.70
65207;SHT31;58477;48.072;11.970;2023-06-14T05:10:52;15.55;64.25
65207;SHT31;58477;48.072;11.970;2023-06-14T05:13:18;16.74;61.32
65207;SHT31;58477;48.072;11.970;2023-06-14T05:15:45;16.40;61.72
65207;SHT31;58477;48.072;11.970;2023-06-14T05:18:11;17.02;60.74
65207;SHT31;58477;48.072;11.970;2023-06-14T05:20:38;17.64;59.23
65207;SHT31;58477;48.072;11.970;2023-06-14T05:23:04;17.71;60.14
65207;SHT31;58477;48.072;11.970;2023-06-14T05:25:29;18.12;58.49
65207;SHT31;58477;48.072;11.970;2023-06-14T05:27:55;18.74;56.46
65207;SHT31;58477;48.072;11.970;2023-06-14T05:30:20;18.42;56.29
65207;SHT31;58477;48.072;11.970;2023-06-14T05:32:46;18.93;56.38
65207;SHT31;58477;48.072;11.970;2023-06-14T05:35:11;18.22;56.82
65207;SHT31;58477;48.072;11.970;2023-06-14T05:37:37;19.25;55.33
65207;SHT31;58477;48.072;11.970;2023-06-14T05:40:03;19.25;55.83
65207;SHT31;58477;48.072;11.970;2023-06-14T05:42:31;18.25;57.65
65207;SHT31;58477;48.072;11.970;2023-06-14T05:44:57;19.27;56.48
65207;SHT31;58477;48.072;11.970;2023-06-14T05:47:22;19.97;54.19
65207;SHT31;58477;48.072;11.970;2023-06-14T05:49:47;19.72;55.28
65207;SHT31;58477;48.072;11.970;2023-06-14T05:52:13;19.71;54.50
65207;SHT31;58477;48.072;11.970;2023-06-14T05:54:38;19.32;54.80
65207;SHT31;58477;48.072;11.970;2023-06-14T05:57:04;19.48;54.46
65207;SHT31;58477;48.072;11.970;2023-06-14T05:59:31;20.44;53.23
65207;SHT31;58477;48.072;11.970;2023-06-14T06:01:57;20.37;52.22
65207;SHT31;58477;48.072;11.970;2023-06-14T06:04:23;20.98;51.76
65207;SHT31;58477;48.072;11.970;2023-06-14T06:06:48;20.47;52.23
65207;SHT31;58477;48.072;11.970;2023-06-14T06:09:14;20.48;52.69
65207;SHT31;58477;48.072;11.970;2023-06-14T06:11:40;20.77;52.37
65207;SHT31;58477;48.072;11.970;2023-06-14T06:14:05;20.88;51.84
65207;SHT31;58477;48.072;11.970;2023-06-14T06:16:31;21.18;51.21
65207;SHT31;58477;48.072;11.970;2023-06-14T06:18:57;21.15;51.76
65207;SHT31;58477;48.072;11.970;2023-06-14T06:21:22;21.31;50.53
65207;SHT31;58477;48.072;11.970;2023-06-14T06:23:47;21.74;50.19
65207;SHT31;58477;48.072;11.970;2023-06-14T06:26:13;22.20;48.59
65207;SHT31;58477;48.072;11.970;2023-06-14T06:28:38;22.17;49.61
65207;SHT31;58477;48.072;11.970;2023-06-14T06:31:04;21.62;50.26
65207;SHT31;58477;48.072;11.970;2023-06-14T06:33:30;22.50;47.59
65207;SHT31;58477;48.072;11.970;2023-06-14T06:35:56;22.43;47.72
65207;SHT31;58477;48.072;11.970;2023-06-14T06:38:21;21.95;47.58
65207;SHT31;58477;48.072;11.970;2023-06-14T06:40:46;21.39;48.98
65207;SHT31;58477;48.072;11.970;2023-06-14T06:43:12;21.63;48.06
65207;SHT31;58477;48.072;11.970;2023-06-14T06:45:45;22.32;47.81
65207;SHT31;58477;48.072;11.970;2023-06-14T06:48:11;22.64;47.99
65207;SHT31;58477;48.072;11.970;2023-06-14T06:50:36;22.67;48.21
65207;SHT31;58477;48.072;11.970;2023-06-14T06:53:02;23.32;47.34
65207;SHT31;58477;48.072;11.970;2023-06-14T06:55:28;23.18;48.08
65207;SHT31;58477;48.072;11.970;2023-06-14T06:57:53;23.42;46.46
65207;SHT31;58477;48.072;11.970;2023-06-14T07:00:20;22.00;48.68
65207;SHT31;58477;48.072;11.970;2023-06-14T07:02:45;22.87;47.95
65207;SHT31;58477;48.072;11.970;2023-06-14T07:05:11;22.65;49.04
65207;SHT31;58477;48.072;11.970;2023-06-14T07:07:36;22.81;47.62
65207;SHT31;58477;48.072;11.970;2023-06-14T07:10:03;23.42;46.70
65207;SHT31;58477;48.072;11.970;2023-06-14T07:12:30;22.95;47.58
65207;SHT31;58477;48.072;11.970;2023-06-14T07:14:59;23.16;48.62
65207;SHT31;58477;48.072;11.970;2023-06-14T07:17:25;23.75;47.39
65207;SHT31;58477;48.072;11.970;2023-06-14T07:19:50;24.13;47.68
65207;SHT31;58477;48.072;11.970;2023-06-14T07:22:17;24.02;46.79
65207;SHT31;58477;48.072;11.970;2023-06-14T07:24:43;24.61;46.11
65207;SHT31;58477;48.072;11.970;2023-06-14T07:27:08;23.48;48.14
65207;SHT31;58477;48.072;11.970;2023-06-14T07:29:34;24.20;47.18
65207;SHT31;58477;48.072;11.970;2023-06-14T07:31:59;23.89;47.38
65207;SHT31;58477;48.072;11.970;2023-06-14T07:34:25;24.20;46.44
65207;SHT31;58477;48.072;11.970;2023-06-14T07:36:51;24.31;46.29
65207;SHT31;58477;48.072;11.970;2023-06-14T07:39:17;25.10;45.66
65207;SHT31;58477;48.072;11.970;2023-06-14T07:41:42;25.35;45.66
65207;SHT31;58477;48.072;11.970;2023-06-14T07:44:07;25.99;43.58
65207;SHT31;58477;48.072;11.970;2023-06-14T07:46:33;25.28;44.40
65207;SHT31;58477;48.072;11.970;2023-06-14T07:49:00;24.94;45.33
65207;SHT31;58477;48.072;11.970;2023-06-14T07:51:25;24.67;45.33
65207;SHT31;58477;48.072;11.970;2023-06-14T07:53:50;24.30;45.47
65207;SHT31;58477;48.072;11.970;2023-06-14T07:56:16;24.19;45.70
65207;SHT31;58477;48.072;11.970;2023-06-14T07:58:41;24.27;45.97
65207;SHT31;58477;48.072;11.970;2023-06-14T08:01:07;24.14;46.26
65207;SHT31;58477;48.072;11.970;2023-06-14T08:03:33;23.89;47.09
65207;SHT31;58477;48.072;11.970;2023-06-14T08:05:59;24.34;46.26
65207;SHT31;58477;48.072;11.970;2023-06-14T08:08:26;23.90;47.07
65207;SHT31;58477;48.072;11.970;2023-06-14T08:10:52;25.25;46.01
65207;SHT31;58477;48.072;11.970;2023-06-14T08:13:17;25.11;45.60
65207;SHT31;58477;48.072;11.970;2023-06-14T08:15:43;24.67;44.21
65207;SHT31;58477;48.072;11.970;2023-06-14T08:18:10;25.73;43.91
65207;SHT31;58477;48.072;11.970;2023-06-14T08:20:35;25.82;43.84
65207;SHT31;58477;48.072;11.970;2023-06-14T08:23:03;26.27;43.39
65207;SHT31;58477;48.072;11.970;2023-06-14T08:25:30;24.71;44.34
65207;SHT31;58477;48.072;11.970;2023-06-14T08:27:55;25.08;44.25
65207;SHT31;58477;48.072;11.970;2023-06-14T08:30:21;24.94;43.65
65207;SHT31;58477;48.072;11.970;2023-06-14T08:32:47;25.46;43.06
65207;SHT31;58477;48.072;11.970;2023-06-14T08:35:12;26.12;42.50
65207;SHT31;58477;48.072;11.970;2023-06-14T08:37:39;25.85;42.47
65207;SHT31;58477;48.072;11.970;2023-06-14T08:40:17;25.97;42.26
65207;SHT31;58477;48.072;11.970;2023-06-14T08:42:44;26.24;42.49
65207;SHT31;58477;48.072;11.970;2023-06-14T08:45:10;25.78;43.08
65207;SHT31;58477;48.072;11.970;2023-06-14T08:47:36;26.86;41.98
65207;SHT31;58477;48.072;11.970;2023-06-14T08:50:02;26.13;42.29
65207;SHT31;58477;48.072;11.970;2023-06-14T08:52:32;26.47;42.70
65207;SHT31;58477;48.072;11.970;2023-06-14T08:55:00;26.12;40.69
65207;SHT31;58477;48.072;11.970;2023-06-14T08:57:28;25.73;40.95
65207;SHT31;58477;48.072;11.970;2023-06-14T08:59:56;25.15;42.09
65207;SHT31;58477;48.072;11.970;2023-06-14T09:02:22;25.38;42.49
65207;SHT31;58477;48.072;11.970;2023-06-14T09:04:47;25.89;41.49
65207;SHT31;58477;48.072;11.970;2023-06-14T09:07:14;26.06;41.59
65207;SHT31;58477;48.072;11.970;2023-06-14T09:09:40;26.65;38.57
65207;SHT31;58477;48.072;11.970;2023-06-14T09:12:15;26.76;40.24
65207;SHT31;58477;48.072;11.970;2023-06-14T09:14:41;26.97;39.70
65207;SHT31;58477;48.072;11.970;2023-06-14T09:17:07;26.99;40.93
65207;SHT31;58477;48.072;11.970;2023-06-14T09:19:33;26.51;39.80
65207;SHT31;58477;48.072;11.970;2023-06-14T09:22:00;26.09;40.91
65207;SHT31;58477;48.072;11.970;2023-06-14T09:24:25;26.06;39.05
65207;SHT31;58477;48.072;11.970;2023-06-14T09:26:51;25.97;38.46
65207;SHT31;58477;48.072;11.970;2023-06-14T09:29:17;26.02;40.15
65207;SHT31;58477;48.072;11.970;2023-06-14T09:31:45;26.63;38.89
65207;SHT31;58477;48.072;11.970;2023-06-14T09:34:10;26.02;38.66
65207;SHT31;58477;48.072;11.970;2023-06-14T09:36:39;26.50;39.03
65207;SHT31;58477;48.072;11.970;2023-06-14T09:39:04;26.54;38.99
65207;SHT31;58477;48.072;11.970;2023-06-14T09:41:39;26.02;38.74
65207;SHT31;58477;48.072;11.970;2023-06-14T09:44:07;26.02;39.00
65207;SHT31;58477;48.072;11.970;2023-06-14T09:46:34;26.67;38.80
65207;SHT31;58477;48.072;11.970;2023-06-14T09:49:01;26.73;38.92
65207;SHT31;58477;48.072;11.970;2023-06-14T09:51:27;27.48;39.17
65207;SHT31;58477;48.072;11.970;2023-06-14T09:53:59;28.20;37.68
65207;SHT31;58477;48.072;11.970;2023-06-14T09:58:56;27.81;37.19
65207;SHT31;58477;48.072;11.970;2023-06-14T10:01:26;26.88;38.16
65207;SHT31;58477;48.072;11.970;2023-06-14T10:03:56;26.65;38.15
65207;SHT31;58477;48.072;11.970;2023-06-14T10:06:23;26.29;38.98
65207;SHT31;58477;48.072;11.970;2023-06-14T10:08:52;26.26;38.87
65207;SHT31;58477;48.072;11.970;2023-06-14T10:11:18;26.30;38.27
65207;SHT31;58477;48.072;11.970;2023-06-14T10:13:44;26.23;38.31
65207;SHT31;58477;48.072;11.970;2023-06-14T10:16:45;26.76;38.50
65207;SHT31;58477;48.072;11.970;2023-06-14T10:19:28;26.04;38.78
65207;SHT31;58477;48.072;11.970;2023-06-14T10:22:22;25.94;38.81
65207;SHT31;58477;48.072;11.970;2023-06-14T10:24:50;26.77;38.01
65207;SHT31;58477;48.072;11.970;2023-06-14T10:27:20;25.94;38.31
65207;SHT31;58477;48.072;11.970;2023-06-14T10:32:27;25.42;40.13
65207;SHT31;58477;48.072;11.970;2023-06-14T10:35:04;25.75;39.10
65207;SHT31;58477;48.072;11.970;2023-06-14T10:37:31;25.83;39.16
65207;SHT31;58477;48.072;11.970;2023-06-14T10:39:56;25.93;39.51
65207;SHT31;58477;48.072;11.970;2023-06-14T10:42:28;26.23;37.55
65207;SHT31;58477;48.072;11.970;2023-06-14T10:44:55;26.60;37.22
65207;SHT31;58477;48.072;11.970;2023-06-14T10:47:36;26.95;36.48
65207;SHT31;58477;48.072;11.970;2023-06-14T10:50:09;27.12;36.23
65207;SHT31;58477;48.072;11.970;2023-06-14T10:52:42;26.65;36.11
65207;SHT31;58477;48.072;11.970;2023-06-14T10:55:15;26.78;36.41
65207;SHT31;58477;48.072;11.970;2023-06-14T11:00:13;26.00;36.23
65207;SHT31;58477;48.072;11.970;2023-06-14T11:05:26;25.83;37.71
65207;SHT31;58477;48.072;11.970;2023-06-14T11:12:54;26.83;35.99
65207;SHT31;58477;48.072;11.970;2023-06-14T11:15:20;27.62;34.85
65207;SHT31;58477;48.072;11.970;2023-06-14T11:17:52;26.83;35.11
65207;SHT31;58477;48.072;11.970;2023-06-14T11:20:25;27.48;34.41
65207;SHT31;58477;48.072;11.970;2023-06-14T11:22:52;25.89;36.52
65207;SHT31;58477;48.072;11.970;2023-06-14T11:25:17;27.53;36.17
65207;SHT31;58477;48.072;11.970;2023-06-14T11:27:43;28.57;34.98
65207;SHT31;58477;48.072;11.970;2023-06-14T11:30:09;28.47;34.17
65207;SHT31;58477;48.072;11.970;2023-06-14T11:32:36;26.97;34.75
65207;SHT31;58477;48.072;11.970;2023-06-14T11:35:02;29.10;32.26
65207;SHT31;58477;48.072;11.970;2023-06-14T11:37:28;29.10;33.08
65207;SHT31;58477;48.072;11.970;2023-06-14T11:39:59;27.15;33.71
65207;SHT31;58477;48.072;11.970;2023-06-14T11:42:27;25.62;34.84
65207;SHT31;58477;48.072;11.970;2023-06-14T11:44:53;26.63;33.86
65207;SHT31;58477;48.072;11.970;2023-06-14T11:47:19;27.39;33.90
65207;SHT31;58477;48.072;11.970;2023-06-14T11:49:46;27.99;33.60
65207;SHT31;58477;48.072;11.970;2023-06-14T11:52:11;27.85;34.05
65207;SHT31;58477;48.072;11.970;2023-06-14T11:54:37;27.01;34.02
65207;SHT31;58477;48.072;11.970;2023-06-14T11:57:03;27.42;35.03
65207;SHT31;58477;48.072;11.970;2023-06-14T11:59:30;26.63;34.25
65207;SHT31;58477;48.072;11.970;2023-06-14T12:01:56;26.44;35.59
65207;SHT31;58477;48.072;11.970;2023-06-14T12:04:29;26.65;33.65
65207;SHT31;58477;48.072;11.970;2023-06-14T12:06:55;27.09;33.67
65207;SHT31;58477;48.072;11.970;2023-06-14T12:09:23;27.18;34.13
65207;SHT31;58477;48.072;11.970;2023-06-14T12:11:51;27.43;32.63
65207;SHT31;58477;48.072;11.970;2023-06-14T12:14:31;27.97;31.56
65207;SHT31;58477;48.072;11.970;2023-06-14T12:17:07;27.67;33.76
65207;SHT31;58477;48.072;11.970;2023-06-14T12:19:33;27.46;35.45
65207;SHT31;58477;48.072;11.970;2023-06-14T12:22:06;27.41;34.82
65207;SHT31;58477;48.072;11.970;2023-06-14T12:24:34;27.37;35.16
65207;SHT31;58477;48.072;11.970;2023-06-14T12:26:59;26.78;34.96
65207;SHT31;58477;48.072;11.970;2023-06-14T12:29:25;27.08;34.23
65207;SHT31;58477;48.072;11.970;2023-06-14T12:31:51;26.73;35.64
65207;SHT31;58477;48.072;11.970;2023-06-14T12:34:19;27.42;33.56
65207;SHT31;58477;48.072;11.970;2023-06-14T12:36:44;26.57;35.85
65207;SHT31;58477;48.072;11.970;2023-06-14T12:39:11;26.83;35.51
65207;SHT31;58477;48.072;11.970;2023-06-14T12:41:36;27.15;35.06
65207;SHT31;58477;48.072;11.970;2023-06-14T12:44:02;27.04;34.21
65207;SHT31;58477;48.072;11.970;2023-06-14T12:46:32;26.99;35.51
65207;SHT31;58477;48.072;11.970;2023-06-14T12:48:58;27.14;34.71
65207;SHT31;58477;48.072;11.970;2023-06-14T12:51:23;27.02;34.70
65207;SHT31;58477;48.072;11.970;2023-06-14T12:53:50;26.22;37.89
65207;SHT31;58477;48.072;11.970;2023-06-14T12:56:16;26.48;37.21
65207;SHT31;58477;48.072;11.970;2023-06-14T12:58:42;26.23;37.31
65207;SHT31;58477;48.072;11.970;2023-06-14T13:01:07;27.37;36.09
65207;SHT31;58477;48.072;11.970;2023-06-14T13:03:33;27.21;35.16
65207;SHT31;58477;48.072;11.970;2023-06-14T13:06:00;27.24;37.27
65207;SHT31;58477;48.072;11.970;2023-06-14T13:08:26;27.02;35.74
65207;SHT31;58477;48.072;11.970;2023-06-14T13:10:51;25.45;37.25
65207;SHT31;58477;48.072;11.970;2023-06-14T13:13:16;25.63;36.63
65207;SHT31;58477;48.072;11.970;2023-06-14T13:15:42;26.07;37.47
65207;SHT31;58477;48.072;11.970;2023-06-14T13:18:08;26.41;36.42
65207;SHT31;58477;48.072;11.970;2023-06-14T13:20:34;24.84;38.30
65207;SHT31;58477;48.072;11.970;2023-06-14T13:22:59;24.44;37.70
65207;SHT31;58477;48.072;11.970;2023-06-14T13:25:25;25.43;37.96
65207;SHT31;58477;48.072;11.970;2023-06-14T13:27:50;25.52;36.10
65207;SHT31;58477;48.072;11.970;2023-06-14T13:30:16;26.50;36.11
65207;SHT31;58477;48.072;11.970;2023-06-14T13:32:42;25.39;37.56
65207;SHT31;58477;48.072;11.970;2023-06-14T13:35:08;25.65;37.28
65207;SHT31;58477;48.072;11.970;2023-06-14T13:37:33;25.17;37.80
65207;SHT31;58477;48.072;11.970;2023-06-14T13:39:59;26.07;35.98
65207;SHT31;58477;48.072;11.970;2023-06-14T13:42:24;26.22;37.28
65207;SHT31;58477;48.072;11.970;2023-06-14T13:44:50;26.37;36.20
65207;SHT31;58477;48.072;11.970;2023-06-14T13:47:16;25.96;36.71
65207;SHT31;58477;48.072;11.970;2023-06-14T13:49:42;25.01;38.15
65207;SHT31;58477;48.072;11.970;2023-06-14T13:52:07;25.72;37.05
65207;SHT31;58477;48.072;11.970;2023-06-14T13:54:33;26.34;35.92
65207;SHT31;58477;48.072;11.970;2023-06-14T13:56:58;25.53;35.51
65207;SHT31;58477;48.072;11.970;2023-06-14T13:59:24;25.83;35.92
65207;SHT31;58477;48.072;11.970;2023-06-14T14:01:49;27.12;35.04
65207;SHT31;58477;48.072;11.970;2023-06-14T14:04:15;26.65;35.45
65207;SHT31;58477;48.072;11.970;2023-06-14T14:06:40;26.73;35.16
65207;SHT31;58477;48.072;11.970;2023-06-14T14:09:07;27.81;34.38
65207;SHT31;58477;48.072;11.970;2023-06-14T14:11:33;26.84;35.38
65207;SHT31;58477;48.072;11.970;2023-06-14T14:13:58;26.87;36.10
65207;SHT31;58477;48.072;11.970;2023-06-14T14:16:24;25.97;36.52
65207;SHT31;58477;48.072;11.970;2023-06-14T14:18:50;24.85;38.06
65207;SHT31;58477;48.072;11.970;2023-06-14T14:21:15;24.17;38.94
65207;SHT31;58477;48.072;11.970;2023-06-14T14:23:40;23.75;39.80
65207;SHT31;58477;48.072;11.970;2023-06-14T14:26:06;23.41;39.84
65207;SHT31;58477;48.072;11.970;2023-06-14T14:28:31;22.86;41.51
65207;SHT31;58477;48.072;11.970;2023-06-14T14:30:58;23.00;40.59
65207;SHT31;58477;48.072;11.970;2023-06-14T14:33:24;23.63;39.62
65207;SHT31;58477;48.072;11.970;2023-06-14T14:35:49;23.99;38.87
65207;SHT31;58477;48.072;11.970;2023-06-14T14:38:15;24.41;37.90
65207;SHT31;58477;48.072;11.970;2023-06-14T14:40:42;23.92;38.84
65207;SHT31;58477;48.072;11.970;2023-06-14T14:43:08;23.69;38.59
65207;SHT31;58477;48.072;11.970;2023-06-14T14:45:33;23.66;39.58
65207;SHT31;58477;48.072;11.970;2023-06-14T14:48:00;25.03;37.36
65207;SHT31;58477;48.072;11.970;2023-06-14T14:50:26;25.97;35.54
65207;SHT31;58477;48.072;11.970;2023-06-14T14:52:51;25.83;36.25
65207;SHT31;58477;48.072;11.970;2023-06-14T14:55:17;25.35;37.59
65207;SHT31;58477;48.072;11.970;2023-06-14T14:57:43;26.12;36.03
65207;SHT31;58477;48.072;11.970;2023-06-14T15:00:09;25.22;37.10
65207;SHT31;58477;48.072;11.970;2023-06-14T15:02:34;24.99;37.38
65207;SHT31;58477;48.072;11.970;2023-06-14T15:05:00;25.58;36.92
65207;SHT31;58477;48.072;11.970;2023-06-14T15:07:32;25.80;36.37
65207;SHT31;58477;48.072;11.970;2023-06-14T15:09:59;25.61;36.24
65207;SHT31;58477;48.072;11.970;2023-06-14T15:12:25;25.94;36.64
65207;SHT31;58477;48.072;11.970;2023-06-14T15:14:50;25.29;36.44
65207;SHT31;58477;48.072;11.970;2023-06-14T15:17:17;25.46;35.97
65207;SHT31;58477;48.072;11.970;2023-06-14T15:19:47;25.10;38.67
65207;SHT31;58477;48.072;11.970;2023-06-14T15:22:12;24.73;40.39
65207;SHT31;58477;48.072;11.970;2023-06-14T15:24:39;24.33;40.76
65207;SHT31;58477;48.072;11.970;2023-06-14T15:27:05;24.41;41.40
65207;SHT31;58477;48.072;11.970;2023-06-14T15:29:30;24.17;41.52
65207;SHT31;58477;48.072;11.970;2023-06-14T15:31:56;23.69;43.10